Terminal Aerodrome Forecast
Issued by NWS North Platte, NE

Home | Current Version | Previous Version | Text Only | Print | Product List | Glossary On
Versions: 1 2 3 4 5 6 7 8 9 10 11 12 13 14 15
927
FTUS43 KLBF 181720
TAFLBF
TAF
KLBF 181720Z 1818/1918 03013G23KT P6SM FEW250
     FM182000 05010KT P6SM SKC
     FM182300 VRB06KT P6SM SKC
     FM191600 17011KT P6SM SKC=

USA.gov is the U.S. government's official web portal to all federal, state and local government web resources and services.